sensor_id;sensor_type;location;lat;lon;timestamp;pressure;altitude;pressure_sealevel;temperature;humidity
63204;BME280;49297;43.210;27.914;2023-03-03T00:00:36;101601.31;;;6.89;67.37
63204;BME280;49297;43.210;27.914;2023-03-03T00:03:08;101597.84;;;6.89;67.30
63204;BME280;49297;43.210;27.914;2023-03-03T00:05:35;101584.03;;;6.85;67.40
63204;BME280;49297;43.210;27.914;2023-03-03T00:08:03;101583.94;;;6.86;67.34
63204;BME280;49297;43.210;27.914;2023-03-03T00:10:30;101585.72;;;6.86;67.00
63204;BME280;49297;43.210;27.914;2023-03-03T00:12:56;101576.78;;;6.89;67.04
63204;BME280;49297;43.210;27.914;2023-03-03T00:15:24;101587.31;;;6.89;67.18
63204;BME280;49297;43.210;27.914;2023-03-03T00:17:51;101578.47;;;6.90;67.13
63204;BME280;49297;43.210;27.914;2023-03-03T00:20:38;101572.53;;;6.86;66.85
63204;BME280;49297;43.210;27.914;2023-03-03T00:23:15;101572.75;;;6.83;66.63
63204;BME280;49297;43.210;27.914;2023-03-03T00:25:43;101576.56;;;6.77;67.06
63204;BME280;49297;43.210;27.914;2023-03-03T00:28:23;101569.56;;;6.78;66.79
63204;BME280;49297;43.210;27.914;2023-03-03T00:30:51;101565.97;;;6.79;67.04
63204;BME280;49297;43.210;27.914;2023-03-03T00:33:42;101565.88;;;6.80;67.01
63204;BME280;49297;43.210;27.914;2023-03-03T00:36:24;101557.88;;;6.82;66.94
63204;BME280;49297;43.210;27.914;2023-03-03T00:38:54;101566.63;;;6.82;67.12
63204;BME280;49297;43.210;27.914;2023-03-03T00:41:25;101561.28;;;6.84;66.76
63204;BME280;49297;43.210;27.914;2023-03-03T00:43:52;101559.69;;;6.81;66.78
63204;BME280;49297;43.210;27.914;2023-03-03T00:46:20;101552.53;;;6.83;66.77
63204;BME280;49297;43.210;27.914;2023-03-03T00:48:46;101548.03;;;6.85;67.14
63204;BME280;49297;43.210;27.914;2023-03-03T00:53:48;101541.75;;;6.88;66.56
63204;BME280;49297;43.210;27.914;2023-03-03T00:56:14;101532.03;;;6.89;66.53
63204;BME280;49297;43.210;27.914;2023-03-03T00:58:40;101540.97;;;6.86;66.83
63204;BME280;49297;43.210;27.914;2023-03-03T01:01:06;101536.91;;;6.80;66.79
63204;BME280;49297;43.210;27.914;2023-03-03T01:03:32;101536.09;;;6.80;66.83
63204;BME280;49297;43.210;27.914;2023-03-03T01:05:58;101531.66;;;6.80;66.68
63204;BME280;49297;43.210;27.914;2023-03-03T01:08:24;101532.41;;;6.82;66.73
63204;BME280;49297;43.210;27.914;2023-03-03T01:10:52;101526.22;;;6.83;66.41
63204;BME280;49297;43.210;27.914;2023-03-03T01:13:20;101520.84;;;6.85;66.11
63204;BME280;49297;43.210;27.914;2023-03-03T01:15:46;101516.44;;;6.85;66.27
63204;BME280;49297;43.210;27.914;2023-03-03T01:18:12;101524.22;;;6.87;66.21
63204;BME280;49297;43.210;27.914;2023-03-03T01:20:39;101509.28;;;6.88;66.03
63204;BME280;49297;43.210;27.914;2023-03-03T01:23:05;101517.25;;;6.86;65.83
63204;BME280;49297;43.210;27.914;2023-03-03T01:25:31;101512.97;;;6.85;65.81
63204;BME280;49297;43.210;27.914;2023-03-03T01:27:57;101513.78;;;6.85;65.93
63204;BME280;49297;43.210;27.914;2023-03-03T01:30:24;101514.63;;;6.86;65.97
63204;BME280;49297;43.210;27.914;2023-03-03T01:32:50;101514.47;;;6.89;65.56
63204;BME280;49297;43.210;27.914;2023-03-03T01:35:16;101510.03;;;6.90;65.51
63204;BME280;49297;43.210;27.914;2023-03-03T01:37:42;101501.47;;;6.86;65.45
63204;BME280;49297;43.210;27.914;2023-03-03T01:40:19;101494.53;;;6.85;65.82
63204;BME280;49297;43.210;27.914;2023-03-03T01:42:46;101490.94;;;6.86;65.38
63204;BME280;49297;43.210;27.914;2023-03-03T01:48:37;101495.28;;;6.87;65.65
63204;BME280;49297;43.210;27.914;2023-03-03T01:53:47;101494.34;;;6.88;65.66
63204;BME280;49297;43.210;27.914;2023-03-03T01:56:14;101492.56;;;6.89;65.67
63204;BME280;49297;43.210;27.914;2023-03-03T01:58:46;101494.34;;;6.88;65.49
63204;BME280;49297;43.210;27.914;2023-03-03T02:01:18;101494.34;;;6.88;65.85
63204;BME280;49297;43.210;27.914;2023-03-03T02:03:45;101497.06;;;6.86;65.98
63204;BME280;49297;43.210;27.914;2023-03-03T02:06:14;101494.44;;;6.86;65.87
63204;BME280;49297;43.210;27.914;2023-03-03T02:08:53;101497.06;;;6.86;65.94
63204;BME280;49297;43.210;27.914;2023-03-03T02:11:22;101492.66;;;6.87;65.83
63204;BME280;49297;43.210;27.914;2023-03-03T02:13:48;101491.81;;;6.86;66.04
63204;BME280;49297;43.210;27.914;2023-03-03T02:16:14;101493.47;;;6.88;66.26
63204;BME280;49297;43.210;27.914;2023-03-03T02:18:40;101494.34;;;6.88;65.96
63204;BME280;49297;43.210;27.914;2023-03-03T02:21:11;101481.06;;;6.90;66.19
63204;BME280;49297;43.210;27.914;2023-03-03T02:26:22;101480.22;;;6.89;65.71
63204;BME280;49297;43.210;27.914;2023-03-03T02:28:49;101483.03;;;6.86;66.19
63204;BME280;49297;43.210;27.914;2023-03-03T02:31:18;101488.31;;;6.86;66.13
63204;BME280;49297;43.210;27.914;2023-03-03T02:33:47;101492.75;;;6.85;66.16
63204;BME280;49297;43.210;27.914;2023-03-03T02:36:19;101480.41;;;6.86;66.25
63204;BME280;49297;43.210;27.914;2023-03-03T02:38:58;101490.75;;;6.89;66.45
63204;BME280;49297;43.210;27.914;2023-03-03T02:44:01;101489.09;;;6.88;66.37
63204;BME280;49297;43.210;27.914;2023-03-03T02:46:32;101488.22;;;6.88;66.22
63204;BME280;49297;43.210;27.914;2023-03-03T02:48:58;101484.75;;;6.87;66.06
63204;BME280;49297;43.210;27.914;2023-03-03T02:51:24;101488.22;;;6.88;66.41
63204;BME280;49297;43.210;27.914;2023-03-03T02:53:50;101484.75;;;6.87;66.36
63204;BME280;49297;43.210;27.914;2023-03-03T02:56:15;101497.16;;;6.85;66.27
63204;BME280;49297;43.210;27.914;2023-03-03T02:58:41;101484.94;;;6.84;66.59
63204;BME280;49297;43.210;27.914;2023-03-03T03:01:08;101480.63;;;6.83;65.75
63204;BME280;49297;43.210;27.914;2023-03-03T03:03:34;101473.66;;;6.82;66.23
63204;BME280;49297;43.210;27.914;2023-03-03T03:06:00;101485.97;;;6.81;66.26
63204;BME280;49297;43.210;27.914;2023-03-03T03:08:26;101479.88;;;6.81;66.42
63204;BME280;49297;43.210;27.914;2023-03-03T03:10:51;101472.81;;;6.81;66.40
63204;BME280;49297;43.210;27.914;2023-03-03T03:13:17;101473.66;;;6.82;66.75
63204;BME280;49297;43.210;27.914;2023-03-03T03:15:46;101475.38;;;6.83;66.65
63204;BME280;49297;43.210;27.914;2023-03-03T03:18:12;101469.22;;;6.82;66.65
63204;BME280;49297;43.210;27.914;2023-03-03T03:20:38;101464.09;;;6.81;66.63
63204;BME280;49297;43.210;27.914;2023-03-03T03:23:07;101477.13;;;6.82;66.84
63204;BME280;49297;43.210;27.914;2023-03-03T03:25:33;101465.00;;;6.80;66.67
63204;BME280;49297;43.210;27.914;2023-03-03T03:27:59;101458.03;;;6.79;66.27
63204;BME280;49297;43.210;27.914;2023-03-03T03:30:24;101466.03;;;6.77;66.41
63204;BME280;49297;43.210;27.914;2023-03-03T03:32:50;101460.03;;;6.75;66.35
63204;BME280;49297;43.210;27.914;2023-03-03T03:35:16;101468.97;;;6.73;66.45
63204;BME280;49297;43.210;27.914;2023-03-03T03:37:42;101460.22;;;6.72;66.44
63204;BME280;49297;43.210;27.914;2023-03-03T03:40:09;101458.53;;;6.71;66.58
63204;BME280;49297;43.210;27.914;2023-03-03T03:42:35;101465.59;;;6.71;66.11
63204;BME280;49297;43.210;27.914;2023-03-03T03:45:03;101461.16;;;6.71;66.59
63204;BME280;49297;43.210;27.914;2023-03-03T03:47:29;101458.63;;;6.70;66.28
63204;BME280;49297;43.210;27.914;2023-03-03T03:49:55;101458.63;;;6.70;66.26
63204;BME280;49297;43.210;27.914;2023-03-03T03:52:20;101459.44;;;6.70;66.21
63204;BME280;49297;43.210;27.914;2023-03-03T03:54:46;101451.69;;;6.69;66.76
63204;BME280;49297;43.210;27.914;2023-03-03T03:57:12;101459.44;;;6.70;66.38
63204;BME280;49297;43.210;27.914;2023-03-03T03:59:38;101443.78;;;6.69;66.60
63204;BME280;49297;43.210;27.914;2023-03-03T04:02:04;101448.09;;;6.70;66.57
63204;BME280;49297;43.210;27.914;2023-03-03T04:04:30;101442.91;;;6.68;66.30
63204;BME280;49297;43.210;27.914;2023-03-03T04:06:56;101449.03;;;6.69;66.55
63204;BME280;49297;43.210;27.914;2023-03-03T04:09:22;101441.25;;;6.67;66.28
63204;BME280;49297;43.210;27.914;2023-03-03T04:11:47;101438.53;;;6.69;66.27
63204;BME280;49297;43.210;27.914;2023-03-03T04:14:13;101442.00;;;6.69;66.41
63204;BME280;49297;43.210;27.914;2023-03-03T04:16:39;101439.28;;;6.71;66.25
63204;BME280;49297;43.210;27.914;2023-03-03T04:19:04;101439.28;;;6.71;66.81
63204;BME280;49297;43.210;27.914;2023-03-03T04:21:30;101435.69;;;6.72;66.09
63204;BME280;49297;43.210;27.914;2023-03-03T04:23:56;101433.91;;;6.72;66.19
63204;BME280;49297;43.210;27.914;2023-03-03T04:26:22;101438.22;;;6.73;66.48
63204;BME280;49297;43.210;27.914;2023-03-03T04:28:48;101431.28;;;6.72;66.06
63204;BME280;49297;43.210;27.914;2023-03-03T04:31:13;101433.91;;;6.72;65.82
63204;BME280;49297;43.210;27.914;2023-03-03T04:33:39;101430.41;;;6.72;66.26
63204;BME280;49297;43.210;27.914;2023-03-03T04:36:05;101432.13;;;6.73;66.25
63204;BME280;49297;43.210;27.914;2023-03-03T04:38:31;101427.69;;;6.73;66.23
63204;BME280;49297;43.210;27.914;2023-03-03T04:40:56;101425.06;;;6.73;65.91
63204;BME280;49297;43.210;27.914;2023-03-03T04:43:24;101435.69;;;6.72;65.82
63204;BME280;49297;43.210;27.914;2023-03-03T04:45:49;101431.16;;;6.74;65.83
63204;BME280;49297;43.210;27.914;2023-03-03T04:48:15;101440.84;;;6.73;65.89
63204;BME280;49297;43.210;27.914;2023-03-03T04:50:41;101431.16;;;6.74;66.08
63204;BME280;49297;43.210;27.914;2023-03-03T04:53:08;101428.44;;;6.75;66.01
63204;BME280;49297;43.210;27.914;2023-03-03T04:55:35;101428.44;;;6.75;65.58
63204;BME280;49297;43.210;27.914;2023-03-03T04:58:03;101442.47;;;6.76;65.58
63204;BME280;49297;43.210;27.914;2023-03-03T05:00:29;101441.59;;;6.75;65.64
63204;BME280;49297;43.210;27.914;2023-03-03T05:02:55;101434.75;;;6.73;65.72
63204;BME280;49297;43.210;27.914;2023-03-03T05:05:20;101445.28;;;6.73;66.03
63204;BME280;49297;43.210;27.914;2023-03-03T05:07:46;101438.22;;;6.73;65.93
63204;BME280;49297;43.210;27.914;2023-03-03T05:10:12;101438.22;;;6.73;65.94
63204;BME280;49297;43.210;27.914;2023-03-03T05:12:38;101445.09;;;6.76;66.12
63204;BME280;49297;43.210;27.914;2023-03-03T05:15:04;101441.59;;;6.75;65.88
63204;BME280;49297;43.210;27.914;2023-03-03T05:17:30;101436.25;;;6.77;65.47
63204;BME280;49297;43.210;27.914;2023-03-03T05:19:56;101438.78;;;6.78;65.78
63204;BME280;49297;43.210;27.914;2023-03-03T05:22:23;101433.53;;;6.78;65.81
63204;BME280;49297;43.210;27.914;2023-03-03T05:24:49;101438.78;;;6.78;65.98
63204;BME280;49297;43.210;27.914;2023-03-03T05:27:15;101445.75;;;6.79;65.18
63204;BME280;49297;43.210;27.914;2023-03-03T05:29:41;101454.31;;;6.83;65.09
63204;BME280;49297;43.210;27.914;2023-03-03T05:32:07;101449.78;;;6.85;65.15
63204;BME280;49297;43.210;27.914;2023-03-03T05:34:33;101454.09;;;6.86;65.13
63204;BME280;49297;43.210;27.914;2023-03-03T05:36:58;101451.38;;;6.88;65.27
63204;BME280;49297;43.210;27.914;2023-03-03T05:39:24;101452.09;;;6.90;64.94
63204;BME280;49297;43.210;27.914;2023-03-03T05:41:50;101450.34;;;6.90;65.38
63204;BME280;49297;43.210;27.914;2023-03-03T05:44:16;101452.88;;;6.92;65.81
63204;BME280;49297;43.210;27.914;2023-03-03T05:46:41;101451.28;;;6.89;65.96
63204;BME280;49297;43.210;27.914;2023-03-03T05:49:07;101457.28;;;6.91;66.38
63204;BME280;49297;43.210;27.914;2023-03-03T05:51:33;101456.34;;;6.92;67.12
63204;BME280;49297;43.210;27.914;2023-03-03T05:54:01;101457.19;;;6.93;66.87
63204;BME280;49297;43.210;27.914;2023-03-03T05:56:27;101466.78;;;6.94;67.62
63204;BME280;49297;43.210;27.914;2023-03-03T05:58:52;101456.34;;;6.92;67.58
63204;BME280;49297;43.210;27.914;2023-03-03T06:01:18;101460.56;;;6.95;67.76
63204;BME280;49297;43.210;27.914;2023-03-03T06:03:44;101460.47;;;6.96;68.05
63204;BME280;49297;43.210;27.914;2023-03-03T06:06:10;101457.94;;;6.95;68.48
63204;BME280;49297;43.210;27.914;2023-03-03T06:08:36;101463.19;;;6.95;68.33
63204;BME280;49297;43.210;27.914;2023-03-03T06:11:02;101454.38;;;6.96;68.29
63204;BME280;49297;43.210;27.914;2023-03-03T06:13:28;101453.63;;;6.94;68.83
63204;BME280;49297;43.210;27.914;2023-03-03T06:15:54;101450.25;;;6.92;68.63
63204;BME280;49297;43.210;27.914;2023-03-03T06:18:20;101452.97;;;6.90;68.28
63204;BME280;49297;43.210;27.914;2023-03-03T06:20:50;101450.13;;;6.93;68.93
63204;BME280;49297;43.210;27.914;2023-03-03T06:23:16;101452.56;;;6.96;68.23
63204;BME280;49297;43.210;27.914;2023-03-03T06:25:42;101446.38;;;6.97;68.89
63204;BME280;49297;43.210;27.914;2023-03-03T06:28:08;101458.41;;;7.01;68.74
63204;BME280;49297;43.210;27.914;2023-03-03T06:30:34;101452.09;;;7.04;68.93
63204;BME280;49297;43.210;27.914;2023-03-03T06:33:00;101464.22;;;7.07;68.75
63204;BME280;49297;43.210;27.914;2023-03-03T06:35:26;101458.78;;;7.10;69.23
63204;BME280;49297;43.210;27.914;2023-03-03T06:37:52;101463.09;;;7.11;68.76
63204;BME280;49297;43.210;27.914;2023-03-03T06:40:18;101461.19;;;7.13;68.79
63204;BME280;49297;43.210;27.914;2023-03-03T06:42:43;101456.91;;;7.12;68.73
63204;BME280;49297;43.210;27.914;2023-03-03T06:45:10;101462.81;;;7.15;68.37
63204;BME280;49297;43.210;27.914;2023-03-03T06:47:37;101467.13;;;7.16;68.49
63204;BME280;49297;43.210;27.914;2023-03-03T06:50:03;101461.75;;;7.18;68.54
63204;BME280;49297;43.210;27.914;2023-03-03T06:52:29;101465.03;;;7.21;68.46
63204;BME280;49297;43.210;27.914;2023-03-03T06:54:57;101457.13;;;7.21;68.49
63204;BME280;49297;43.210;27.914;2023-03-03T06:57:29;101464.75;;;7.26;68.58
63204;BME280;49297;43.210;27.914;2023-03-03T07:00:22;101463.69;;;7.29;67.91
63204;BME280;49297;43.210;27.914;2023-03-03T07:02:59;101461.94;;;7.29;67.58
63204;BME280;49297;43.210;27.914;2023-03-03T07:05:27;101463.59;;;7.30;67.80
63204;BME280;49297;43.210;27.914;2023-03-03T07:07:55;101463.50;;;7.32;67.24
63204;BME280;49297;43.210;27.914;2023-03-03T07:10:26;101458.25;;;7.32;66.15
63204;BME280;49297;43.210;27.914;2023-03-03T07:12:53;101460.13;;;7.30;65.73
63204;BME280;49297;43.210;27.914;2023-03-03T07:15:32;101457.31;;;7.33;65.19
63204;BME280;49297;43.210;27.914;2023-03-03T07:17:59;101460.59;;;7.36;65.00
63204;BME280;49297;43.210;27.914;2023-03-03T07:20:38;101454.28;;;7.39;64.25
63204;BME280;49297;43.210;27.914;2023-03-03T07:23:17;101451.34;;;7.43;64.74
63204;BME280;49297;43.210;27.914;2023-03-03T07:25:45;101442.31;;;7.48;63.50
63204;BME280;49297;43.210;27.914;2023-03-03T07:28:28;101442.09;;;7.51;63.82
63204;BME280;49297;43.210;27.914;2023-03-03T07:30:56;101450.66;;;7.54;63.40
63204;BME280;49297;43.210;27.914;2023-03-03T07:33:28;101447.78;;;7.57;63.26
63204;BME280;49297;43.210;27.914;2023-03-03T07:35:57;101438.53;;;7.65;63.08
63204;BME280;49297;43.210;27.914;2023-03-03T07:38:44;101440.78;;;7.71;63.39
63204;BME280;49297;43.210;27.914;2023-03-03T07:41:22;101437.72;;;7.77;62.95
63204;BME280;49297;43.210;27.914;2023-03-03T07:46:28;101434.38;;;7.88;62.27
63204;BME280;49297;43.210;27.914;2023-03-03T07:48:56;101426.09;;;7.94;62.03
63204;BME280;49297;43.210;27.914;2023-03-03T07:51:26;101424.91;;;7.98;61.71
63204;BME280;49297;43.210;27.914;2023-03-03T07:53:57;101430.94;;;8.00;61.41
63204;BME280;49297;43.210;27.914;2023-03-03T07:56:28;101430.94;;;8.00;61.31
63204;BME280;49297;43.210;27.914;2023-03-03T07:58:55;101420.47;;;7.98;61.48
63204;BME280;49297;43.210;27.914;2023-03-03T08:01:43;101415.09;;;8.00;60.80
63204;BME280;49297;43.210;27.914;2023-03-03T08:06:53;101421.44;;;8.10;61.36
63204;BME280;49297;43.210;27.914;2023-03-03T08:09:29;101412.69;;;8.23;60.78
63204;BME280;49297;43.210;27.914;2023-03-03T08:11:59;101414.81;;;8.30;60.56
63204;BME280;49297;43.210;27.914;2023-03-03T08:14:29;101419.97;;;8.32;60.62
63204;BME280;49297;43.210;27.914;2023-03-03T08:16:56;101411.03;;;8.34;61.19
63204;BME280;49297;43.210;27.914;2023-03-03T08:19:22;101407.94;;;8.41;61.25
63204;BME280;49297;43.210;27.914;2023-03-03T08:21:48;101409.34;;;8.46;60.78
63204;BME280;49297;43.210;27.914;2023-03-03T08:24:14;101409.88;;;8.51;60.87
63204;BME280;49297;43.210;27.914;2023-03-03T08:26:40;101415.66;;;8.56;60.59
63204;BME280;49297;43.210;27.914;2023-03-03T08:29:05;101412.72;;;8.61;61.10
63204;BME280;49297;43.210;27.914;2023-03-03T08:31:31;101405.31;;;8.66;60.56
63204;BME280;49297;43.210;27.914;2023-03-03T08:33:57;101405.97;;;8.70;61.00
63204;BME280;49297;43.210;27.914;2023-03-03T08:36:23;101403.69;;;8.76;60.75
63204;BME280;49297;43.210;27.914;2023-03-03T08:38:49;101406.97;;;8.80;60.25
63204;BME280;49297;43.210;27.914;2023-03-03T08:41:15;101404.19;;;8.94;60.75
63204;BME280;49297;43.210;27.914;2023-03-03T08:43:41;101418.41;;;9.05;60.25
63204;BME280;49297;43.210;27.914;2023-03-03T08:46:07;101416.81;;;9.15;59.77
63204;BME280;49297;43.210;27.914;2023-03-03T08:48:34;101419.72;;;9.23;59.82
63204;BME280;49297;43.210;27.914;2023-03-03T08:51:00;101421.09;;;9.29;59.15
63204;BME280;49297;43.210;27.914;2023-03-03T08:53:26;101419.59;;;9.38;58.84
63204;BME280;49297;43.210;27.914;2023-03-03T08:55:52;101429.47;;;9.47;59.02
63204;BME280;49297;43.210;27.914;2023-03-03T08:58:19;101424.91;;;9.49;58.16
63204;BME280;49297;43.210;27.914;2023-03-03T09:00:46;101424.19;;;9.47;58.38
63204;BME280;49297;43.210;27.914;2023-03-03T09:03:11;101423.81;;;9.51;58.34
63204;BME280;49297;43.210;27.914;2023-03-03T09:05:38;101425.66;;;9.62;58.40
63204;BME280;49297;43.210;27.914;2023-03-03T09:08:07;101429.19;;;9.63;58.19
63204;BME280;49297;43.210;27.914;2023-03-03T09:10:33;101428.16;;;9.52;58.03
63204;BME280;49297;43.210;27.914;2023-03-03T09:13:17;101414.78;;;9.43;58.38
63204;BME280;49297;43.210;27.914;2023-03-03T09:15:47;101413.09;;;9.42;57.91
63204;BME280;49297;43.210;27.914;2023-03-03T09:18:20;101414.34;;;9.49;58.03
63204;BME280;49297;43.210;27.914;2023-03-03T09:20:53;101408.06;;;9.50;57.87
63204;BME280;49297;43.210;27.914;2023-03-03T09:23:29;101402.06;;;9.48;57.87
63204;BME280;49297;43.210;27.914;2023-03-03T09:28:39;101405.38;;;9.63;58.13
63204;BME280;49297;43.210;27.914;2023-03-03T09:31:20;101397.19;;;9.66;57.97
63204;BME280;49297;43.210;27.914;2023-03-03T09:33:47;101394.13;;;9.72;57.14
63204;BME280;49297;43.210;27.914;2023-03-03T09:38:50;101387.41;;;9.79;57.17
63204;BME280;49297;43.210;27.914;2023-03-03T09:55:27;101373.03;;;10.06;57.24
63204;BME280;49297;43.210;27.914;2023-03-03T09:58:04;101363.28;;;9.95;56.80
63204;BME280;49297;43.210;27.914;2023-03-03T10:03:16;101351.00;;;9.94;57.37
63204;BME280;49297;43.210;27.914;2023-03-03T10:06:10;101359.41;;;9.99;56.37
63204;BME280;49297;43.210;27.914;2023-03-03T10:20:44;101337.16;;;9.90;56.21
63204;BME280;49297;43.210;27.914;2023-03-03T10:23:20;101339.91;;;9.89;55.98
63204;BME280;49297;43.210;27.914;2023-03-03T10:25:54;101330.31;;;9.88;56.53
63204;BME280;49297;43.210;27.914;2023-03-03T10:45:03;101308.78;;;10.26;56.89
63204;BME280;49297;43.210;27.914;2023-03-03T10:50:20;101319.66;;;10.23;57.57
63204;BME280;49297;43.210;27.914;2023-03-03T11:07:41;101281.81;;;10.66;56.21
63204;BME280;49297;43.210;27.914;2023-03-03T11:16:18;101270.81;;;10.39;55.32
63204;BME280;49297;43.210;27.914;2023-03-03T11:27:26;101242.28;;;10.08;56.71
63204;BME280;49297;43.210;27.914;2023-03-03T11:46:49;101230.22;;;10.50;55.20
63204;BME280;49297;43.210;27.914;2023-03-03T11:49:32;101225.38;;;10.66;55.94
63204;BME280;49297;43.210;27.914;2023-03-03T11:55:12;101216.09;;;10.72;55.92
63204;BME280;49297;43.210;27.914;2023-03-03T11:57:43;101220.50;;;10.82;55.79
63204;BME280;49297;43.210;27.914;2023-03-03T12:08:31;101225.09;;;11.22;55.71
63204;BME280;49297;43.210;27.914;2023-03-03T12:14:28;101223.34;;;11.85;54.28
63204;BME280;49297;43.210;27.914;2023-03-03T12:17:13;101214.97;;;12.20;53.46
63204;BME280;49297;43.210;27.914;2023-03-03T12:20:15;101214.31;;;12.47;53.07
63204;BME280;49297;43.210;27.914;2023-03-03T12:25:53;101211.13;;;13.02;51.20
63204;BME280;49297;43.210;27.914;2023-03-03T12:28:25;101212.66;;;12.95;51.08
63204;BME280;49297;43.210;27.914;2023-03-03T12:33:58;101218.53;;;12.50;51.98
63204;BME280;49297;43.210;27.914;2023-03-03T12:39:39;101217.31;;;12.04;52.95
63204;BME280;49297;43.210;27.914;2023-03-03T12:44:40;101217.06;;;11.55;54.06
63204;BME280;49297;43.210;27.914;2023-03-03T12:47:21;101220.19;;;11.39;54.16
63204;BME280;49297;43.210;27.914;2023-03-03T12:55:24;101207.00;;;10.53;56.25
63204;BME280;49297;43.210;27.914;2023-03-03T13:03:44;101212.63;;;9.94;58.08
63204;BME280;49297;43.210;27.914;2023-03-03T13:06:32;101211.88;;;10.03;58.06
63204;BME280;49297;43.210;27.914;2023-03-03T13:17:21;101216.34;;;9.80;59.15
63204;BME280;49297;43.210;27.914;2023-03-03T13:20:00;101204.31;;;9.87;59.62
63204;BME280;49297;43.210;27.914;2023-03-03T13:22:37;101211.66;;;9.95;59.28
63204;BME280;49297;43.210;27.914;2023-03-03T13:25:19;101200.94;;;9.96;59.05
63204;BME280;49297;43.210;27.914;2023-03-03T13:27:54;101207.81;;;9.99;58.58
63204;BME280;49297;43.210;27.914;2023-03-03T13:30:32;101206.38;;;9.95;59.33
63204;BME280;49297;43.210;27.914;2023-03-03T13:35:51;101194.69;;;9.97;59.61
63204;BME280;49297;43.210;27.914;2023-03-03T13:38:34;101194.94;;;9.94;59.58
63204;BME280;49297;43.210;27.914;2023-03-03T13:43:59;101199.63;;;9.90;59.35
63204;BME280;49297;43.210;27.914;2023-03-03T13:46:35;101204.09;;;9.79;60.08
63204;BME280;49297;43.210;27.914;2023-03-03T13:55:08;101181.25;;;9.44;60.88
63204;BME280;49297;43.210;27.914;2023-03-03T14:11:28;101183.63;;;9.36;61.27
63204;BME280;49297;43.210;27.914;2023-03-03T14:19:36;101179.44;;;9.22;61.89
63204;BME280;49297;43.210;27.914;2023-03-03T14:25:20;101187.09;;;8.78;62.75
63204;BME280;49297;43.210;27.914;2023-03-03T14:36:08;101189.34;;;8.71;63.53
63204;BME280;49297;43.210;27.914;2023-03-03T14:38:54;101190.19;;;8.72;63.76
63204;BME280;49297;43.210;27.914;2023-03-03T14:41:21;101193.56;;;8.74;64.19
63204;BME280;49297;43.210;27.914;2023-03-03T14:43:59;101188.28;;;8.74;64.01
63204;BME280;49297;43.210;27.914;2023-03-03T14:48:56;101202.38;;;8.62;64.75
63204;BME280;49297;43.210;27.914;2023-03-03T14:51:23;101199.25;;;8.56;64.63
63204;BME280;49297;43.210;27.914;2023-03-03T14:53:50;101200.06;;;8.57;64.25
63204;BME280;49297;43.210;27.914;2023-03-03T14:56:32;101199.56;;;8.52;65.01
63204;BME280;49297;43.210;27.914;2023-03-03T14:59:22;101192.41;;;8.41;64.60
63204;BME280;49297;43.210;27.914;2023-03-03T15:07:43;101199.69;;;8.37;65.43
63204;BME280;49297;43.210;27.914;2023-03-03T15:10:10;101202.91;;;8.30;66.20
63204;BME280;49297;43.210;27.914;2023-03-03T15:12:41;101213.66;;;8.27;67.02
63204;BME280;49297;43.210;27.914;2023-03-03T15:15:18;101198.91;;;8.24;66.79
63204;BME280;49297;43.210;27.914;2023-03-03T15:20:36;101189.50;;;7.96;68.32
63204;BME280;49297;43.210;27.914;2023-03-03T15:28:36;101200.25;;;7.93;68.52
63204;BME280;49297;43.210;27.914;2023-03-03T15:31:09;101201.53;;;7.87;68.37
63204;BME280;49297;43.210;27.914;2023-03-03T15:36:43;101197.34;;;7.85;69.18
63204;BME280;49297;43.210;27.914;2023-03-03T15:39:24;101202.59;;;7.85;68.72
63204;BME280;49297;43.210;27.914;2023-03-03T15:42:33;101203.22;;;7.88;68.94
63204;BME280;49297;43.210;27.914;2023-03-03T15:53:32;101205.13;;;7.86;69.05
63204;BME280;49297;43.210;27.914;2023-03-03T16:02:24;101211.66;;;7.80;69.77
63204;BME280;49297;43.210;27.914;2023-03-03T16:04:58;101212.00;;;7.76;69.18
63204;BME280;49297;43.210;27.914;2023-03-03T16:22:22;101230.22;;;7.66;71.40
63204;BME280;49297;43.210;27.914;2023-03-03T16:31:00;101240.66;;;7.68;71.67
63204;BME280;49297;43.210;27.914;2023-03-03T16:36:26;101243.22;;;7.69;72.79
63204;BME280;49297;43.210;27.914;2023-03-03T16:39:14;101243.22;;;7.69;72.19
63204;BME280;49297;43.210;27.914;2023-03-03T16:47:55;101260.28;;;7.63;72.79
63204;BME280;49297;43.210;27.914;2023-03-03T17:04:09;101264.50;;;7.66;72.80
63204;BME280;49297;43.210;27.914;2023-03-03T17:06:53;101268.00;;;7.67;73.07
63204;BME280;49297;43.210;27.914;2023-03-03T17:09:49;101266.19;;;7.67;73.43
63204;BME280;49297;43.210;27.914;2023-03-03T17:12:45;101266.19;;;7.67;72.60
63204;BME280;49297;43.210;27.914;2023-03-03T17:18:13;101277.66;;;7.66;72.99
63204;BME280;49297;43.210;27.914;2023-03-03T17:20:48;101275.03;;;7.66;72.56
63204;BME280;49297;43.210;27.914;2023-03-03T17:26:24;101275.66;;;7.70;73.18
63204;BME280;49297;43.210;27.914;2023-03-03T17:32:08;101269.56;;;7.69;73.05
63204;BME280;49297;43.210;27.914;2023-03-03T17:37:42;101271.03;;;7.73;73.62
63204;BME280;49297;43.210;27.914;2023-03-03T17:43:09;101271.03;;;7.73;73.67
63204;BME280;49297;43.210;27.914;2023-03-03T17:45:40;101278.63;;;7.78;73.73
63204;BME280;49297;43.210;27.914;2023-03-03T17:50:58;101278.19;;;7.84;74.49
63204;BME280;49297;43.210;27.914;2023-03-03T18:13:15;101298.66;;;7.80;73.94
63204;BME280;49297;43.210;27.914;2023-03-03T18:16:14;101297.00;;;7.79;74.42
63204;BME280;49297;43.210;27.914;2023-03-03T18:19:02;101294.44;;;7.78;73.46
63204;BME280;49297;43.210;27.914;2023-03-03T18:21:53;101293.63;;;7.77;73.40
63204;BME280;49297;43.210;27.914;2023-03-03T18:24:53;101293.63;;;7.77;73.37
63204;BME280;49297;43.210;27.914;2023-03-03T18:37:50;101297.00;;;7.79;72.79
63204;BME280;49297;43.210;27.914;2023-03-03T18:40:34;101294.44;;;7.78;73.40